createdAt,value
2019-05-06T00:01:57.276Z,16.37
2019-05-06T00:06:49.940Z,27.77
2019-05-06T00:11:41.874Z,35.87
2019-05-06T00:16:34.924Z,25.90
2019-05-06T00:21:27.689Z,16.13
2019-05-06T00:26:36.861Z,27.53
2019-05-06T00:31:29.167Z,26.53
2019-05-06T00:36:23.592Z,30.90
2019-05-06T00:41:24.692Z,20.03
2019-05-06T00:46:16.643Z,27.73
2019-05-06T00:51:08.656Z,33.80
2019-05-06T00:56:01.333Z,22.87
2019-05-06T01:00:54.046Z,16.07
2019-05-06T01:05:46.415Z,12.10
2019-05-06T01:10:38.900Z,16.67
2019-05-06T01:15:31.672Z,15.23
2019-05-06T01:20:24.741Z,19.30
2019-05-06T01:25:17.431Z,44.10
2019-05-06T01:30:10.800Z,37.00
2019-05-06T01:35:04.785Z,50.83
2019-05-06T01:40:16.825Z,50.70
2019-05-06T01:45:09.819Z,40.67
2019-05-06T01:50:04.388Z,40.43
2019-05-06T01:54:55.974Z,35.27
2019-05-06T01:59:47.957Z,23.20
2019-05-06T02:04:39.976Z,23.07
2019-05-06T02:09:34.255Z,31.90
2019-05-06T02:14:30.752Z,27.53
2019-05-06T02:19:24.156Z,23.43
2019-05-06T02:24:17.921Z,21.60
2019-05-06T02:29:26.716Z,20.37
2019-05-06T02:34:36.962Z,15.50
2019-05-06T02:39:29.674Z,17.50
2019-05-06T02:44:23.904Z,15.50
2019-05-06T02:49:23.554Z,15.60
2019-05-06T02:54:14.439Z,50.27
2019-05-06T02:59:07.104Z,27.17
2019-05-06T03:03:59.612Z,18.20
2019-05-06T03:08:54.069Z,31.60
2019-05-06T03:13:46.719Z,30.07
2019-05-06T03:18:39.132Z,24.50
2019-05-06T03:23:36.108Z,18.70
2019-05-06T03:28:33.075Z,30.50
2019-05-06T03:33:46.627Z,50.50
2019-05-06T03:38:18.625Z,39.30
2019-05-06T03:43:13.061Z,32.27
2019-05-06T03:48:06.658Z,33.03
2019-05-06T03:52:59.743Z,24.40
2019-05-06T03:57:54.403Z,22.80
2019-05-06T04:02:47.119Z,42.83
2019-05-06T04:07:39.880Z,22.03
2019-05-06T04:12:34.643Z,44.00
2019-05-06T04:17:34.740Z,35.33
2019-05-06T04:22:33.306Z,27.67
2019-05-06T04:27:38.779Z,28.70
2019-05-06T04:32:33.960Z,15.93
2019-05-06T04:37:25.679Z,13.00
2019-05-06T04:42:17.719Z,16.07
2019-05-06T04:47:09.732Z,13.53
2019-05-06T04:52:03.645Z,13.80
2019-05-06T04:56:56.377Z,15.07
2019-05-06T05:01:49.478Z,23.43
2019-05-06T05:06:43.266Z,13.87
2019-05-06T05:11:43.601Z,15.80
2019-05-06T05:16:54.237Z,16.87
2019-05-06T05:21:47.633Z,14.07
2019-05-06T05:26:39.994Z,22.43
2019-05-06T05:31:33.335Z,19.30
2019-05-06T05:36:25.416Z,21.67
2019-05-06T05:41:17.971Z,20.67
2019-05-06T05:46:12.487Z,28.40
2019-05-06T05:51:04.845Z,20.23
2019-05-06T05:55:57.455Z,18.63
2019-05-06T06:00:51.993Z,17.73
2019-05-06T06:05:44.054Z,19.57
2019-05-06T06:10:52.458Z,20.93
2019-05-06T06:16:02.939Z,21.77
2019-05-06T06:21:18.757Z,20.27
2019-05-06T06:26:07.115Z,17.77
2019-05-06T06:31:03.070Z,17.10
2019-05-06T06:36:05.929Z,16.70
2019-05-06T06:40:58.599Z,18.67
2019-05-06T06:45:52.982Z,22.00
2019-05-06T06:50:45.060Z,17.73
2019-05-06T06:55:38.717Z,21.27
2019-05-06T07:00:53.292Z,21.40
2019-05-06T07:06:02.575Z,21.63
2019-05-06T07:10:55.216Z,23.03
2019-05-06T07:15:47.627Z,24.53
2019-05-06T07:20:42.945Z,25.97
2019-05-06T07:25:35.341Z,30.00
2019-05-06T07:30:34.285Z,28.20
2019-05-06T07:35:37.592Z,25.00
2019-05-06T07:40:22.002Z,25.80
2019-05-06T07:45:21.892Z,23.62
2019-05-06T07:50:14.209Z,26.90
2019-05-06T07:55:07.253Z,28.85
2019-05-06T08:00:00.076Z,23.73
2019-05-06T08:04:53.172Z,25.43
2019-05-06T08:09:45.790Z,24.90
2019-05-06T08:14:43.022Z,26.00
2019-05-06T08:19:36.016Z,20.68
2019-05-06T08:24:28.713Z,17.57
2019-05-06T08:29:22.489Z,33.83
2019-05-06T08:34:14.853Z,26.60
2019-05-06T08:39:07.650Z,17.82
2019-05-06T08:44:02.398Z,8.38
2019-05-06T08:48:54.195Z,10.10
2019-05-06T08:53:48.013Z,12.25
2019-05-06T08:58:47.156Z,13.55
2019-05-06T09:03:42.310Z,10.13
2019-05-06T09:08:34.794Z,7.20
2019-05-06T09:13:27.260Z,7.80
2019-05-06T09:18:20.479Z,7.80
2019-05-06T09:23:13.200Z,6.37
2019-05-06T09:28:27.240Z,5.65
2019-05-06T09:33:22.538Z,8.78
2019-05-06T09:38:15.099Z,14.07
2019-05-06T09:43:07.489Z,13.90
2019-05-06T09:48:12.796Z,19.62
2019-05-06T09:53:04.991Z,7.25
2019-05-06T09:58:05.032Z,5.45
2019-05-06T10:02:57.788Z,3.33
2019-05-06T10:07:49.933Z,7.15
2019-05-06T10:12:42.099Z,4.87
2019-05-06T10:17:34.776Z,5.95
2019-05-06T10:22:27.323Z,3.50
2019-05-06T10:27:19.869Z,3.45
2019-05-06T10:32:25.822Z,4.47
2019-05-06T10:37:47.454Z,4.47
2019-05-06T10:42:45.316Z,4.28
2019-05-06T10:47:37.624Z,5.37
2019-05-06T10:52:33.277Z,5.83
2019-05-06T10:57:32.651Z,4.92
2019-05-06T11:02:32.295Z,4.42
2019-05-06T11:07:31.314Z,5.83
2019-05-06T11:12:18.871Z,5.72
2019-05-06T11:17:12.533Z,5.97
2019-05-06T11:22:05.049Z,3.72
2019-05-06T11:26:57.208Z,4.08
2019-05-06T11:32:02.263Z,4.47
2019-05-06T11:36:56.011Z,6.60
2019-05-06T11:42:01.666Z,4.10
2019-05-06T11:46:43.070Z,4.70
2019-05-06T11:51:35.390Z,5.42
2019-05-06T11:56:28.071Z,5.15
2019-05-06T12:01:34.178Z,7.55
2019-05-06T12:06:26.487Z,3.85
2019-05-06T12:11:18.944Z,4.60
2019-05-06T12:16:14.146Z,3.50
2019-05-06T12:21:11.258Z,5.72
2019-05-06T12:26:02.472Z,5.97
2019-05-06T12:30:56.631Z,6.15
2019-05-06T12:35:48.496Z,6.22
2019-05-06T12:40:42.879Z,6.58
2019-05-06T12:45:37.070Z,10.03
2019-05-06T12:50:29.492Z,8.70
2019-05-06T12:55:25.301Z,5.62
2019-05-06T13:00:19.036Z,11.97
2019-05-06T13:05:12.622Z,8.60
2019-05-06T13:10:06.844Z,8.73
2019-05-06T13:14:59.305Z,5.50
2019-05-06T13:19:52.369Z,5.40
2019-05-06T13:24:45.166Z,7.12
2019-05-06T13:29:38.077Z,7.95
2019-05-06T13:34:30.409Z,6.33
2019-05-06T13:39:24.032Z,5.47
2019-05-06T13:44:17.440Z,5.03
2019-05-06T13:49:13.350Z,7.33
2019-05-06T13:54:05.754Z,4.97
2019-05-06T13:58:58.335Z,6.08
2019-05-06T14:03:52.437Z,4.75
2019-05-06T14:08:44.686Z,5.58
2019-05-06T14:13:36.902Z,4.40
2019-05-06T14:18:29.393Z,7.67
2019-05-06T14:23:22.323Z,6.50
2019-05-06T14:28:25.401Z,6.55
2019-05-06T14:33:23.400Z,6.15
2019-05-06T14:38:14.995Z,5.95
2019-05-06T14:43:07.580Z,6.67
2019-05-06T14:48:00.000Z,6.25
2019-05-06T14:52:52.406Z,7.97
2019-05-06T14:57:44.813Z,6.95
2019-05-06T15:02:37.718Z,10.25
2019-05-06T15:07:29.693Z,7.37
2019-05-06T15:12:23.059Z,8.48
2019-05-06T15:17:15.932Z,10.30
2019-05-06T15:22:08.539Z,10.48
2019-05-06T15:27:02.737Z,6.40
2019-05-06T15:32:12.997Z,8.88
2019-05-06T15:37:24.942Z,9.48
2019-05-06T15:42:17.749Z,10.32
2019-05-06T15:47:13.193Z,9.43
2019-05-06T15:52:05.433Z,11.97
2019-05-06T15:56:57.611Z,12.25
2019-05-06T16:01:49.908Z,11.75
2019-05-06T16:06:44.743Z,13.45
2019-05-06T16:11:36.206Z,10.38
2019-05-06T16:16:28.753Z,6.97
2019-05-06T16:21:23.014Z,11.03
2019-05-06T16:26:14.997Z,7.53
2019-05-06T16:31:07.304Z,9.08
2019-05-06T16:36:00.066Z,11.97
2019-05-06T16:41:02.150Z,13.08
2019-05-06T16:45:47.370Z,8.38
2019-05-06T16:50:42.792Z,10.60
2019-05-06T16:55:55.457Z,10.45
2019-05-06T17:00:48.181Z,7.22
2019-05-06T17:05:42.448Z,9.43
2019-05-06T17:10:34.913Z,9.28
2019-05-06T17:15:27.763Z,8.20
2019-05-06T17:20:22.650Z,10.10
2019-05-06T17:25:14.843Z,11.68
2019-05-06T17:30:28.747Z,13.10
2019-05-06T17:35:22.847Z,11.55
2019-05-06T17:40:20.129Z,14.63
2019-05-06T17:45:32.228Z,10.15
2019-05-06T17:50:25.544Z,12.58
2019-05-06T17:55:17.893Z,15.25
2019-05-06T18:00:10.661Z,17.00
2019-05-06T18:05:03.021Z,15.10
2019-05-06T18:09:55.331Z,18.92
2019-05-06T18:14:47.888Z,15.88
2019-05-06T18:19:40.586Z,17.70
2019-05-06T18:24:33.449Z,28.32
2019-05-06T18:29:25.877Z,20.80
2019-05-06T18:34:18.490Z,13.50
2019-05-06T18:39:12.575Z,8.45
2019-05-06T18:44:05.219Z,7.78
2019-05-06T18:48:57.358Z,7.70
2019-05-06T18:53:52.181Z,16.00
2019-05-06T18:58:43.828Z,15.20
2019-05-06T19:03:40.476Z,19.80
2019-05-06T19:08:42.051Z,14.65
2019-05-06T19:13:34.094Z,20.05
2019-05-06T19:18:25.874Z,11.00
2019-05-06T19:23:18.051Z,12.05
2019-05-06T19:28:12.109Z,27.80
2019-05-06T19:33:06.877Z,14.63
2019-05-06T19:37:58.145Z,15.10
2019-05-06T19:42:53.111Z,12.90
2019-05-06T19:47:44.567Z,14.07
2019-05-06T19:52:37.202Z,13.37
2019-05-06T19:57:32.223Z,12.43
2019-05-06T20:02:25.831Z,12.50
2019-05-06T20:07:27.078Z,11.45
2019-05-06T20:12:23.033Z,14.80
2019-05-06T20:17:15.358Z,12.53
2019-05-06T20:22:07.665Z,7.47
2019-05-06T20:27:02.219Z,6.67
2019-05-06T20:31:54.196Z,8.43
2019-05-06T20:36:46.596Z,8.37
2019-05-06T20:41:38.981Z,10.40
2019-05-06T20:46:32.308Z,11.65
2019-05-06T20:51:24.349Z,13.77
2019-05-06T20:56:16.743Z,11.80
2019-05-06T21:01:08.888Z,21.95
2019-05-06T21:06:05.540Z,20.83
2019-05-06T21:10:58.280Z,14.90
2019-05-06T21:15:50.364Z,14.50
2019-05-06T21:20:43.700Z,13.67
2019-05-06T21:25:36.397Z,17.03
2019-05-06T21:30:28.650Z,14.73
2019-05-06T21:35:22.213Z,13.20
2019-05-06T21:40:15.290Z,13.80
2019-05-06T21:45:07.613Z,12.63
2019-05-06T21:50:01.186Z,9.73
2019-05-06T21:54:53.423Z,10.27
2019-05-06T21:59:46.170Z,9.73
2019-05-06T22:04:38.875Z,17.10
2019-05-06T22:09:32.288Z,14.37
2019-05-06T22:14:24.710Z,15.47
2019-05-06T22:19:17.123Z,14.27
2019-05-06T22:24:11.951Z,16.37
2019-05-06T22:29:03.891Z,24.40
2019-05-06T22:33:56.392Z,23.43
2019-05-06T22:38:48.688Z,34.33
2019-05-06T22:43:42.383Z,64.63
2019-05-06T22:48:35.273Z,28.70
2019-05-06T22:53:27.784Z,27.20
2019-05-06T22:58:20.116Z,30.67
2019-05-06T23:03:14.074Z,23.43
2019-05-06T23:08:06.725Z,20.90
2019-05-06T23:12:59.113Z,22.23
2019-05-06T23:17:52.687Z,17.60
2019-05-06T23:22:45.230Z,26.97
2019-05-06T23:27:37.264Z,18.20
2019-05-06T23:32:30.162Z,17.53
2019-05-06T23:37:23.059Z,17.42
2019-05-06T23:42:53.394Z,20.10
2019-05-06T23:48:22.854Z,12.73
2019-05-06T23:53:52.286Z,17.80
2019-05-06T23:58:44.658Z,16.37
